Time;durP1;ratioP1;P1;durP2;ratioP2;P2;SDS_P1;SDS_P2;PMS_P1;PMS_P2;Temp;Humidity;BMP_temperature;BMP_pressure;BME280_temperature;BME280_humidity;BME280_pressure;Samples;Min_cycle;Max_cycle;Signal;HPM_P1;HPM_P2
2021/05/30 00:03:07;;;;;;;;;;;9.40;99.90;;;;;;10577887;28;19957;-67
2021/05/30 00:08:09;;;;;;;;;;;9.30;99.90;;;;;;10578316;28;19924;-67
2021/05/30 00:13:11;;;;;;;;;;;9.20;99.90;;;;;;10584467;28;19955;-68
2021/05/30 00:18:13;;;;;;;;;;;9.20;99.90;;;;;;10579655;28;20367;-67
2021/05/30 00:23:15;;;;;;;;;;;8.70;99.90;;;;;;10577319;28;20014;-67
2021/05/30 00:28:16;;;;;;;;;;;9.00;99.90;;;;;;10577330;28;20014;-67
2021/05/30 00:33:17;;;;;;;;;;;9.10;99.90;;;;;;10577917;28;20255;-68
2021/05/30 00:38:19;;;;;;;;;;;9.00;99.90;;;;;;10578649;28;20017;-67
2021/05/30 00:43:21;;;;;;;;;;;8.90;99.90;;;;;;10582996;28;20019;-67
2021/05/30 00:48:22;;;;;;;;;;;8.90;99.90;;;;;;10576386;28;19946;-67
2021/05/30 00:53:24;;;;;;;;;;;8.90;99.90;;;;;;10575785;28;19928;-68
2021/05/30 00:58:25;;;;;;;;;;;8.90;99.90;;;;;;10576421;28;20322;-67
2021/05/30 01:03:27;;;;;;;;;;;8.90;99.90;;;;;;10575664;28;19924;-67
2021/05/30 01:08:29;;;;;;;;;;;8.80;99.90;;;;;;10574981;28;19931;-68
2021/05/30 01:13:30;;;;;;;;;;;8.70;99.90;;;;;;10580835;28;20002;-67
2021/05/30 01:18:31;;;;;;;;;;;8.70;99.90;;;;;;10584827;28;20033;-67
2021/05/30 01:23:33;;;;;;;;;;;8.70;99.90;;;;;;10584010;28;20019;-67
2021/05/30 01:28:34;;;;;;;;;;;8.60;99.90;;;;;;10583882;28;19980;-68
2021/05/30 01:33:35;;;;;;;;;;;8.60;99.90;;;;;;10583562;28;19972;-67
2021/05/30 01:38:37;;;;;;;;;;;8.60;99.90;;;;;;10583456;28;19923;-67
2021/05/30 01:43:38;;;;;;;;;;;8.60;99.90;;;;;;10582969;28;19923;-68
2021/05/30 01:48:40;;;;;;;;;;;8.50;99.90;;;;;;10582886;28;19968;-67
2021/05/30 01:53:48;;;;;;;;;;;8.90;99.90;;;;;;10582830;28;19935;-67
2021/05/30 01:58:49;;;;;;;;;;;8.30;99.90;;;;;;10582750;28;19978;-67
2021/05/30 02:03:50;;;;;;;;;;;8.40;99.90;;;;;;10583162;28;19924;-67
2021/05/30 02:08:53;;;;;;;;;;;7.90;99.90;;;;;;10583467;28;19950;-67
2021/05/30 02:13:57;;;;;;;;;;;8.40;99.90;;;;;;10583653;28;19930;-67
2021/05/30 02:18:59;;;;;;;;;;;8.30;99.90;;;;;;10583706;28;20436;-68
2021/05/30 02:24:01;;;;;;;;;;;8.30;99.90;;;;;;10582942;28;19980;-67
2021/05/30 02:29:02;;;;;;;;;;;6.70;99.90;;;;;;10583473;28;19969;-66
2021/05/30 02:34:03;;;;;;;;;;;8.20;99.90;;;;;;10583398;28;19930;-66
2021/05/30 02:39:05;;;;;;;;;;;6.00;99.90;;;;;;10583124;28;19954;-67
2021/05/30 02:44:07;;;;;;;;;;;8.10;99.90;;;;;;10581961;28;19928;-67
2021/05/30 02:49:08;;;;;;;;;;;8.00;99.90;;;;;;10583121;28;19962;-67
2021/05/30 02:54:10;;;;;;;;;;;8.00;99.90;;;;;;10583340;28;19935;-66
2021/05/30 02:59:12;;;;;;;;;;;8.10;99.90;;;;;;10584743;28;19973;-67
2021/05/30 03:04:13;;;;;;;;;;;8.30;99.90;;;;;;10582294;28;19927;-67
2021/05/30 03:09:15;;;;;;;;;;;8.60;99.90;;;;;;10581935;28;19959;-67
2021/05/30 03:14:17;;;;;;;;;;;8.80;99.90;;;;;;10581243;28;20381;-66
2021/05/30 03:19:21;;;;;;;;;;;9.00;99.90;;;;;;10581097;28;20010;-67
2021/05/30 03:24:23;;;;;;;;;;;9.20;99.90;;;;;;10580790;28;19928;-67
2021/05/30 03:29:24;;;;;;;;;;;9.30;99.90;;;;;;10580849;28;20383;-67
2021/05/30 03:34:25;;;;;;;;;;;8.50;99.90;;;;;;10580082;28;19931;-67
2021/05/30 03:39:29;;;;;;;;;;;9.50;99.90;;;;;;10580572;28;19928;-68
2021/05/30 03:44:30;;;;;;;;;;;9.60;99.90;;;;;;10580400;28;19970;-67
2021/05/30 03:49:31;;;;;;;;;;;9.70;99.90;;;;;;10586267;28;19975;-66
2021/05/30 03:54:33;;;;;;;;;;;9.80;99.90;;;;;;10579912;28;20006;-67
2021/05/30 03:59:35;;;;;;;;;;;9.70;99.90;;;;;;10579164;28;20298;-67
2021/05/30 04:04:36;;;;;;;;;;;9.90;99.90;;;;;;10579618;28;19935;-67
2021/05/30 04:09:38;;;;;;;;;;;11.30;99.90;;;;;;10579458;28;20410;-68
2021/05/30 04:14:39;;;;;;;;;;;10.00;99.90;;;;;;10580657;28;19970;-67
2021/05/30 04:19:40;;;;;;;;;;;10.00;99.90;;;;;;10580359;28;20355;-67
2021/05/30 04:24:42;;;;;;;;;;;10.10;99.90;;;;;;10576823;28;20009;-67
2021/05/30 04:29:44;;;;;;;;;;;10.10;99.90;;;;;;10576714;28;20379;-67
2021/05/30 04:34:45;;;;;;;;;;;10.20;99.90;;;;;;10577045;28;19924;-67
2021/05/30 04:39:47;;;;;;;;;;;10.20;99.90;;;;;;10577217;28;19935;-68
2021/05/30 04:44:48;;;;;;;;;;;10.10;99.90;;;;;;10575832;28;19994;-67
2021/05/30 04:49:49;;;;;;;;;;;10.30;99.90;;;;;;10583702;28;20333;-67
2021/05/30 04:54:51;;;;;;;;;;;10.30;99.90;;;;;;10584529;28;19928;-67
2021/05/30 04:59:52;;;;;;;;;;;10.40;99.90;;;;;;10585265;28;19999;-67
2021/05/30 05:04:54;;;;;;;;;;;10.40;99.90;;;;;;10584903;28;19980;-67
2021/05/30 05:09:55;;;;;;;;;;;9.50;99.90;;;;;;10584134;28;20281;-66
2021/05/30 05:14:57;;;;;;;;;;;10.50;99.90;;;;;;10584965;28;19923;-66
2021/05/30 05:19:58;;;;;;;;;;;10.60;99.90;;;;;;10583948;28;20249;-67
2021/05/30 05:25:00;;;;;;;;;;;10.30;99.90;;;;;;10584353;28;20015;-67
2021/05/30 05:30:01;;;;;;;;;;;10.70;99.90;;;;;;10583969;28;20014;-67
2021/05/30 05:35:02;;;;;;;;;;;10.80;99.90;;;;;;10583584;28;20003;-67
2021/05/30 05:40:05;;;;;;;;;;;10.80;99.90;;;;;;10583486;28;20014;-67
2021/05/30 05:45:07;;;;;;;;;;;10.80;99.90;;;;;;10582017;28;20375;-67
2021/05/30 05:50:09;;;;;;;;;;;10.80;99.90;;;;;;10580880;28;19932;-67
2021/05/30 05:55:11;;;;;;;;;;;9.00;99.90;;;;;;10580157;28;20287;-67
2021/05/30 06:00:14;;;;;;;;;;;10.90;99.90;;;;;;10579183;28;19946;-67
2021/05/30 06:05:17;;;;;;;;;;;10.90;99.90;;;;;;10578964;28;19924;-67
2021/05/30 06:10:23;;;;;;;;;;;11.20;99.90;;;;;;10578108;28;20039;-66
2021/05/30 06:15:25;;;;;;;;;;;10.40;99.90;;;;;;10577967;28;19923;-66
2021/05/30 06:20:27;;;;;;;;;;;11.10;99.90;;;;;;10578687;28;19928;-67
2021/05/30 06:25:29;;;;;;;;;;;11.20;99.90;;;;;;10577340;28;19998;-66
2021/05/30 06:30:32;;;;;;;;;;;11.50;99.90;;;;;;10582257;28;20072;-66
2021/05/30 06:35:35;;;;;;;;;;;12.00;99.90;;;;;;10578467;28;19924;-66
2021/05/30 06:40:37;;;;;;;;;;;12.50;99.90;;;;;;10575749;28;19950;-67
2021/05/30 06:45:39;;;;;;;;;;;13.10;99.90;;;;;;10511649;28;1811656;-67
2021/05/30 06:50:40;;;;;;;;;;;13.30;99.90;;;;;;10578378;28;20328;-67
2021/05/30 06:55:42;;;;;;;;;;;13.60;99.90;;;;;;10579281;28;19982;-67
2021/05/30 07:00:43;;;;;;;;;;;13.90;99.70;;;;;;10578511;28;19924;-67
2021/05/30 07:05:45;;;;;;;;;;;14.40;97.90;;;;;;10579139;28;19924;-67
2021/05/30 07:10:47;;;;;;;;;;;14.60;96.70;;;;;;10576964;28;19927;-67
2021/05/30 07:15:51;;;;;;;;;;;14.80;95.90;;;;;;10578353;28;19959;-66
2021/05/30 07:20:53;;;;;;;;;;;15.70;95.90;;;;;;10578747;28;20299;-66
2021/05/30 07:25:55;;;;;;;;;;;15.70;94.40;;;;;;10580194;28;19923;-64
2021/05/30 07:30:56;;;;;;;;;;;16.00;93.10;;;;;;10580033;28;20005;-73
2021/05/30 07:35:57;;;;;;;;;;;16.50;91.60;;;;;;10580329;28;20459;-73
2021/05/30 07:40:59;;;;;;;;;;;16.80;90.00;;;;;;10580041;28;19928;-76
2021/05/30 07:46:01;;;;;;;;;;;17.60;88.90;;;;;;10592543;28;19918;-71
2021/05/30 07:51:02;;;;;;;;;;;18.10;84.90;;;;;;10594557;28;19924;-74
2021/05/30 07:56:04;;;;;;;;;;;19.60;78.90;;;;;;10578432;28;19931;-74
2021/05/30 08:01:05;;;;;;;;;;;19.40;74.80;;;;;;10578462;28;20035;-71
2021/05/30 08:06:07;;;;;;;;;;;21.50;68.60;;;;;;10578448;28;20006;-71
2021/05/30 08:11:09;;;;;;;;;;;22.00;61.70;;;;;;10577095;28;19963;-72
2021/05/30 08:16:10;;;;;;;;;;;22.50;56.70;;;;;;10577450;28;19930;-75
2021/05/30 08:21:11;;;;;;;;;;;24.50;51.90;;;;;;10576758;28;19927;-73
2021/05/30 08:26:13;;;;;;;;;;;24.60;50.10;;;;;;10576204;28;20425;-70
2021/05/30 08:31:14;;;;;;;;;;;25.80;50.00;;;;;;10576708;28;19927;-69
2021/05/30 08:36:15;;;;;;;;;;;26.30;47.30;;;;;;10577043;28;19927;-68
2021/05/30 08:41:18;;;;;;;;;;;26.10;46.00;;;;;;10576871;28;19923;-67
2021/05/30 08:46:19;;;;;;;;;;;26.40;46.30;;;;;;10576417;28;19927;-66
2021/05/30 08:51:21;;;;;;;;;;;26.80;45.50;;;;;;10576500;28;19997;-68
2021/05/30 08:56:23;;;;;;;;;;;27.30;45.10;;;;;;10576319;28;20002;-72
2021/05/30 09:01:25;;;;;;;;;;;27.40;42.30;;;;;;10576502;28;19930;-68
2021/05/30 09:06:27;;;;;;;;;;;27.30;43.10;;;;;;10575820;28;20291;-69
2021/05/30 09:11:46;;;;;;;;;;;27.70;41.80;;;;;;10576346;28;20594;-68
2021/05/30 09:16:49;;;;;;;;;;;27.40;41.60;;;;;;10576144;28;19930;-69
2021/05/30 09:21:50;;;;;;;;;;;28.20;41.30;;;;;;10576220;28;19938;-67
2021/05/30 09:26:51;;;;;;;;;;;28.20;40.10;;;;;;10576147;28;19938;-71
2021/05/30 09:31:56;;;;;;;;;;;28.90;40.00;;;;;;10576602;28;20042;-67
2021/05/30 09:36:58;;;;;;;;;;;29.50;39.30;;;;;;10584292;28;19930;-73
2021/05/30 09:42:14;;;;;;;;;;;29.60;38.60;;;;;;10583871;28;20015;-70
2021/05/30 09:52:44;;;;;;;;;;;30.10;36.80;;;;;;10564169;27;19926;-67
2021/05/30 09:58:00;;;;;;;;;;;30.20;37.10;;;;;;10562370;28;20265;-67
2021/05/30 10:03:02;;;;;;;;;;;30.50;37.10;;;;;;10558513;28;20352;-66
2021/05/30 10:08:05;;;;;;;;;;;29.80;36.70;;;;;;10561010;28;19932;-67
2021/05/30 10:13:06;;;;;;;;;;;29.90;37.10;;;;;;10561062;28;19946;-67
2021/05/30 10:18:10;;;;;;;;;;;30.00;36.40;;;;;;10559611;28;19928;-68
2021/05/30 10:23:15;;;;;;;;;;;30.40;37.20;;;;;;10560451;28;19978;-67
2021/05/30 10:28:17;;;;;;;;;;;30.40;36.20;;;;;;10559070;28;19936;-68
2021/05/30 10:33:19;;;;;;;;;;;31.10;35.90;;;;;;10559509;28;19953;-67
2021/05/30 10:38:37;;;;;;;;;;;30.90;35.40;;;;;;10562234;28;19932;-66
2021/05/30 10:43:38;;;;;;;;;;;31.10;34.50;;;;;;10560761;28;19927;-67
2021/05/30 10:48:40;;;;;;;;;;;31.10;34.60;;;;;;10566441;28;19927;-68
2021/05/30 10:53:43;;;;;;;;;;;31.00;34.00;;;;;;10601992;27;20020;-65
2021/05/30 10:58:45;;;;;;;;;;;30.70;34.70;;;;;;10600990;27;19930;-66
2021/05/30 11:04:15;;;;;;;;;;;30.70;33.50;;;;;;10574914;28;19934;-66
2021/05/30 11:09:18;;;;;;;;;;;31.30;33.50;;;;;;10569945;28;20032;-66
2021/05/30 11:14:19;;;;;;;;;;;31.80;31.60;;;;;;10571187;28;19930;-66
2021/05/30 11:19:20;;;;;;;;;;;31.70;31.90;;;;;;10571584;28;19938;-65
2021/05/30 11:24:24;;;;;;;;;;;31.50;31.70;;;;;;10570716;27;19934;-66
2021/05/30 11:29:26;;;;;;;;;;;31.40;32.40;;;;;;10569943;28;19939;-66
2021/05/30 11:34:29;;;;;;;;;;;32.00;31.10;;;;;;10571159;28;19989;-68
2021/05/30 11:39:37;;;;;;;;;;;31.40;32.50;;;;;;10572045;28;19932;-68
2021/05/30 11:44:38;;;;;;;;;;;31.20;32.80;;;;;;10569537;27;19928;-68
2021/05/30 11:49:39;;;;;;;;;;;30.90;30.30;;;;;;10571534;28;19928;-66
2021/05/30 11:54:48;;;;;;;;;;;30.70;30.40;;;;;;10570301;28;19931;-68
2021/05/30 11:59:53;;;;;;;;;;;31.10;29.90;;;;;;10571183;28;19932;-68
2021/05/30 12:04:58;;;;;;;;;;;31.10;30.20;;;;;;10568023;28;20523;-68
2021/05/30 12:10:00;;;;;;;;;;;31.30;30.50;;;;;;10568569;28;19932;-70
2021/05/30 12:15:02;;;;;;;;;;;31.30;30.10;;;;;;10565912;28;19927;-69
2021/05/30 12:20:04;;;;;;;;;;;31.80;29.60;;;;;;10567542;28;20050;-69
2021/05/30 12:25:07;;;;;;;;;;;31.70;30.80;;;;;;10566676;28;20530;-66
2021/05/30 12:30:11;;;;;;;;;;;31.40;31.50;;;;;;10567740;28;20471;-66
2021/05/30 12:35:12;;;;;;;;;;;31.30;31.50;;;;;;10567966;28;19924;-68
2021/05/30 12:40:15;;;;;;;;;;;31.80;31.10;;;;;;10567713;28;19938;-69
2021/05/30 12:45:17;;;;;;;;;;;31.50;30.40;;;;;;10548987;28;19924;-69
2021/05/30 12:50:18;;;;;;;;;;;31.50;31.00;;;;;;10568422;28;20728;-64
2021/05/30 12:55:21;;;;;;;;;;;31.10;35.10;;;;;;10567942;28;19932;-68
2021/05/30 13:00:26;;;;;;;;;;;30.90;33.10;;;;;;10570013;28;19927;-67
2021/05/30 13:05:31;;;;;;;;;;;30.80;34.90;;;;;;10568345;28;19934;-67
2021/05/30 13:10:33;;;;;;;;;;;30.30;36.30;;;;;;10568811;28;19935;-67
2021/05/30 13:15:44;;;;;;;;;;;30.10;37.30;;;;;;10568914;28;19931;-67
2021/05/30 13:20:48;;;;;;;;;;;29.60;37.60;;;;;;10567699;28;19934;-66
2021/05/30 13:25:50;;;;;;;;;;;28.90;38.50;;;;;;10569011;28;20014;-68
2021/05/30 13:30:53;;;;;;;;;;;28.70;38.70;;;;;;10568017;28;20551;-68
2021/05/30 13:35:54;;;;;;;;;;;28.30;39.70;;;;;;10565933;28;20368;-67
2021/05/30 13:40:57;;;;;;;;;;;28.00;39.60;;;;;;10568286;28;19972;-68
2021/05/30 13:45:58;;;;;;;;;;;27.90;39.90;;;;;;10568333;28;19935;-66
2021/05/30 13:51:09;;;;;;;;;;;27.40;40.60;;;;;;10569595;28;19931;-65
2021/05/30 13:56:11;;;;;;;;;;;27.20;41.30;;;;;;10568375;28;19931;-67
2021/05/30 14:01:13;;;;;;;;;;;26.80;41.20;;;;;;10567947;28;19989;-67
2021/05/30 14:06:15;;;;;;;;;;;26.10;42.30;;;;;;10566594;28;19936;-67
2021/05/30 14:11:18;;;;;;;;;;;25.70;43.90;;;;;;10565441;28;20496;-66
2021/05/30 14:16:20;;;;;;;;;;;25.60;44.50;;;;;;10563000;28;19954;-66
2021/05/30 14:21:21;;;;;;;;;;;25.50;44.20;;;;;;10564633;28;20023;-66
2021/05/30 14:26:23;;;;;;;;;;;25.40;45.10;;;;;;10564275;28;19928;-66
2021/05/30 14:31:24;;;;;;;;;;;25.20;45.30;;;;;;10560823;28;20284;-67
2021/05/30 14:36:25;;;;;;;;;;;25.00;45.90;;;;;;10568074;28;19928;-67
2021/05/30 14:41:27;;;;;;;;;;;24.70;46.60;;;;;;10573143;28;20038;-66
2021/05/30 14:46:30;;;;;;;;;;;24.50;47.20;;;;;;10573499;28;20003;-67
2021/05/30 14:51:33;;;;;;;;;;;24.40;47.30;;;;;;10572595;28;20340;-66
2021/05/30 14:56:36;;;;;;;;;;;24.10;47.50;;;;;;10573322;28;19971;-67
2021/05/30 15:01:38;;;;;;;;;;;23.80;48.50;;;;;;10572662;28;20064;-67
2021/05/30 15:06:39;;;;;;;;;;;23.50;49.00;;;;;;10573287;28;19939;-64
2021/05/30 15:11:41;;;;;;;;;;;23.60;49.70;;;;;;10572612;28;19978;-66
2021/05/30 15:16:42;;;;;;;;;;;23.60;49.50;;;;;;10571288;27;19934;-66
2021/05/30 15:21:44;;;;;;;;;;;23.50;49.50;;;;;;10573248;28;19923;-65
2021/05/30 15:26:46;;;;;;;;;;;23.30;49.90;;;;;;10571076;27;20002;-66
2021/05/30 15:31:51;;;;;;;;;;;23.20;51.60;;;;;;10572011;28;20041;-65
2021/05/30 15:36:52;;;;;;;;;;;21.10;50.00;;;;;;10572351;28;20384;-66
2021/05/30 15:41:54;;;;;;;;;;;22.90;51.90;;;;;;10572710;28;20352;-66
2021/05/30 15:46:55;;;;;;;;;;;22.90;52.70;;;;;;10571522;28;19928;-66
2021/05/30 15:51:56;;;;;;;;;;;22.80;53.40;;;;;;10570708;28;19928;-67
2021/05/30 15:56:58;;;;;;;;;;;22.80;53.70;;;;;;10571893;28;19973;-65
2021/05/30 16:02:00;;;;;;;;;;;22.90;54.30;;;;;;10571108;28;19968;-66
2021/05/30 16:07:01;;;;;;;;;;;22.90;54.20;;;;;;10570931;28;19931;-65
2021/05/30 16:12:03;;;;;;;;;;;22.80;54.10;;;;;;10571136;28;19928;-65
2021/05/30 16:17:04;;;;;;;;;;;22.60;55.30;;;;;;10570569;28;19932;-65
2021/05/30 16:22:05;;;;;;;;;;;22.50;56.30;;;;;;10569854;28;20315;-65
2021/05/30 16:27:09;;;;;;;;;;;22.40;56.30;;;;;;10567891;28;20009;-65
2021/05/30 16:32:10;;;;;;;;;;;22.40;56.50;;;;;;10568348;28;19931;-65
2021/05/30 16:37:11;;;;;;;;;;;22.20;57.60;;;;;;10567660;28;20387;-65
2021/05/30 16:42:13;;;;;;;;;;;22.00;59.10;;;;;;10567827;28;19934;-66
2021/05/30 16:47:14;;;;;;;;;;;21.60;61.80;;;;;;10564332;27;20410;-66
2021/05/30 16:52:16;;;;;;;;;;;21.20;64.10;;;;;;10566159;28;19982;-64
2021/05/30 16:57:17;;;;;;;;;;;21.50;66.10;;;;;;10566935;28;19931;-66
2021/05/30 17:02:19;;;;;;;;;;;21.10;67.40;;;;;;10566844;27;19934;-65
2021/05/30 17:07:20;;;;;;;;;;;21.30;66.00;;;;;;10566495;28;19930;-67
2021/05/30 17:12:22;;;;;;;;;;;21.40;66.30;;;;;;10566737;28;20382;-68
2021/05/30 17:17:23;;;;;;;;;;;21.30;66.60;;;;;;10567581;28;19928;-65
2021/05/30 17:22:25;;;;;;;;;;;21.20;66.70;;;;;;10567543;28;19934;-65
2021/05/30 17:27:27;;;;;;;;;;;21.30;66.60;;;;;;10567111;28;19934;-66
2021/05/30 17:32:28;;;;;;;;;;;21.20;66.90;;;;;;10565932;28;19934;-65
2021/05/30 17:37:29;;;;;;;;;;;21.20;66.60;;;;;;10565908;28;19927;-67
2021/05/30 17:42:31;;;;;;;;;;;21.20;67.50;;;;;;10564512;28;20707;-65
2021/05/30 17:47:32;;;;;;;;;;;21.10;68.20;;;;;;10566149;28;19928;-66
2021/05/30 17:52:34;;;;;;;;;;;21.10;69.20;;;;;;10565274;28;20014;-68
2021/05/30 17:57:36;;;;;;;;;;;21.00;69.30;;;;;;10565060;28;19971;-67
2021/05/30 18:02:37;;;;;;;;;;;20.90;62.90;;;;;;10563936;28;19934;-68
2021/05/30 18:08:12;;;;;;;;;;;20.90;60.80;;;;;;10565458;28;19924;-68
2021/05/30 18:13:01;;;;;;;;;;;20.70;60.20;;;;;;10569953;28;19940;-69
2021/05/30 18:18:02;;;;;;;;;;;20.60;59.20;;;;;;10574341;28;20347;-65
2021/05/30 18:23:04;;;;;;;;;;;20.50;59.90;;;;;;10572648;28;19958;-65
2021/05/30 18:28:06;;;;;;;;;;;20.30;60.30;;;;;;10573927;28;19924;-67
2021/05/30 18:33:07;;;;;;;;;;;20.10;60.30;;;;;;10574850;28;19928;-64
2021/05/30 18:38:08;;;;;;;;;;;19.90;60.60;;;;;;10573221;28;20457;-67
2021/05/30 18:43:11;;;;;;;;;;;19.90;61.20;;;;;;10572140;28;19927;-67
2021/05/30 18:48:13;;;;;;;;;;;19.80;61.70;;;;;;10571849;28;19927;-66
2021/05/30 18:53:14;;;;;;;;;;;19.60;69.80;;;;;;10571052;28;20543;-66
2021/05/30 18:58:16;;;;;;;;;;;19.50;77.00;;;;;;10572096;28;19928;-68
2021/05/30 19:03:17;;;;;;;;;;;18.90;81.00;;;;;;10571846;28;20062;-66
2021/05/30 19:08:18;;;;;;;;;;;18.60;84.80;;;;;;10571420;28;19928;-66
2021/05/30 19:13:20;;;;;;;;;;;18.40;86.70;;;;;;10571140;27;19927;-66
2021/05/30 19:18:22;;;;;;;;;;;18.20;88.50;;;;;;10571036;28;20607;-66
2021/05/30 19:23:23;;;;;;;;;;;18.00;90.10;;;;;;10571518;28;20347;-67
2021/05/30 19:28:25;;;;;;;;;;;17.90;91.20;;;;;;10570443;28;19997;-68
2021/05/30 19:33:26;;;;;;;;;;;17.70;92.50;;;;;;10570423;28;19984;-65
2021/05/30 19:38:30;;;;;;;;;;;17.50;93.60;;;;;;10571166;28;19969;-65
2021/05/30 19:43:32;;;;;;;;;;;17.30;94.80;;;;;;10569860;27;20050;-66
2021/05/30 19:48:34;;;;;;;;;;;17.10;96.20;;;;;;10570655;28;19923;-65
2021/05/30 19:53:37;;;;;;;;;;;17.00;97.10;;;;;;10568181;28;19938;-65
2021/05/30 19:58:39;;;;;;;;;;;16.80;98.30;;;;;;10570234;28;19931;-66
2021/05/30 20:03:40;;;;;;;;;;;16.70;98.90;;;;;;10567666;28;20372;-66
2021/05/30 20:08:41;;;;;;;;;;;16.60;99.40;;;;;;10568674;28;19939;-66
2021/05/30 20:13:43;;;;;;;;;;;16.50;99.90;;;;;;10568753;28;20453;-66
2021/05/30 20:18:44;;;;;;;;;;;16.40;99.90;;;;;;10570030;28;20303;-66
2021/05/30 20:23:45;;;;;;;;;;;16.30;99.90;;;;;;10570555;28;19928;-67
2021/05/30 20:28:54;;;;;;;;;;;16.20;99.90;;;;;;10570309;28;19931;-65
2021/05/30 20:33:55;;;;;;;;;;;16.10;99.90;;;;;;10569840;28;19927;-65
2021/05/30 20:38:56;;;;;;;;;;;16.00;99.90;;;;;;10569903;28;19973;-65
2021/05/30 20:43:58;;;;;;;;;;;15.90;99.90;;;;;;10570166;28;19934;-65
2021/05/30 20:48:59;;;;;;;;;;;15.80;99.90;;;;;;10569400;28;20295;-65
2021/05/30 20:54:00;;;;;;;;;;;15.80;99.90;;;;;;10582996;27;19928;-65
2021/05/30 20:59:03;;;;;;;;;;;15.80;99.90;;;;;;10564826;28;20390;-65
2021/05/30 21:04:04;;;;;;;;;;;15.70;99.90;;;;;;10568353;28;19973;-65
2021/05/30 21:09:06;;;;;;;;;;;15.70;99.90;;;;;;10569893;28;19928;-65
2021/05/30 21:14:08;;;;;;;;;;;15.60;99.90;;;;;;10570115;28;19928;-65
2021/05/30 21:19:09;;;;;;;;;;;15.50;99.90;;;;;;10569981;28;19927;-64
2021/05/30 21:24:10;;;;;;;;;;;15.50;99.90;;;;;;10568948;28;20467;-64
2021/05/30 21:29:12;;;;;;;;;;;15.40;99.90;;;;;;10569778;28;20370;-65
2021/05/30 21:34:13;;;;;;;;;;;15.40;99.90;;;;;;10568682;28;19932;-64
2021/05/30 21:39:15;;;;;;;;;;;15.30;99.90;;;;;;10569176;28;19935;-64
2021/05/30 21:44:17;;;;;;;;;;;15.20;99.90;;;;;;10559894;28;19932;-64
2021/05/30 21:49:18;;;;;;;;;;;15.20;99.90;;;;;;10563190;28;20436;-66
2021/05/30 21:54:19;;;;;;;;;;;15.10;99.90;;;;;;10569281;28;19931;-65
2021/05/30 21:59:21;;;;;;;;;;;15.00;99.90;;;;;;10568872;28;19928;-65
2021/05/30 22:04:22;;;;;;;;;;;15.00;99.90;;;;;;10568711;28;20009;-65
2021/05/30 22:09:23;;;;;;;;;;;14.90;99.90;;;;;;10562497;28;19930;-64
2021/05/30 22:14:25;;;;;;;;;;;14.80;99.90;;;;;;10567326;28;19934;-65
2021/05/30 22:19:27;;;;;;;;;;;14.80;99.90;;;;;;10566821;28;20368;-65
2021/05/30 22:24:28;;;;;;;;;;;14.70;99.90;;;;;;10567167;28;19955;-65
2021/05/30 22:29:30;;;;;;;;;;;14.60;99.90;;;;;;10567650;28;20848;-65
2021/05/30 22:34:31;;;;;;;;;;;14.50;99.90;;;;;;10567424;28;19928;-65
2021/05/30 22:39:32;;;;;;;;;;;14.50;99.90;;;;;;10565879;28;19939;-65
2021/05/30 22:44:34;;;;;;;;;;;14.40;99.90;;;;;;10567214;28;19939;-65
2021/05/30 22:49:36;;;;;;;;;;;14.70;99.90;;;;;;10565950;28;19935;-65
2021/05/30 22:54:37;;;;;;;;;;;14.30;99.90;;;;;;10565152;28;19928;-65
2021/05/30 22:59:39;;;;;;;;;;;14.20;99.90;;;;;;10568715;28;19928;-65
2021/05/30 23:04:40;;;;;;;;;;;14.00;99.90;;;;;;10570888;28;19927;-65
2021/05/30 23:09:42;;;;;;;;;;;14.10;99.90;;;;;;10569018;27;19934;-64
2021/05/30 23:14:44;;;;;;;;;;;14.10;99.90;;;;;;10570954;28;19927;-64
2021/05/30 23:19:45;;;;;;;;;;;14.00;99.90;;;;;;10570668;28;19946;-66
2021/05/30 23:24:46;;;;;;;;;;;14.00;99.90;;;;;;10570284;28;20016;-65
2021/05/30 23:29:50;;;;;;;;;;;14.00;99.90;;;;;;10571009;28;19928;-65
2021/05/30 23:34:52;;;;;;;;;;;13.90;99.90;;;;;;10571554;27;20295;-65
2021/05/30 23:39:54;;;;;;;;;;;13.80;99.90;;;;;;10571105;28;19928;-64
2021/05/30 23:44:56;;;;;;;;;;;13.70;99.90;;;;;;10569909;28;19931;-65
2021/05/30 23:49:57;;;;;;;;;;;13.70;99.90;;;;;;10570683;28;19980;-65
2021/05/30 23:54:59;;;;;;;;;;;13.60;99.90;;;;;;10568787;28;20508;-65
